createdAt,value
2019-02-26T00:01:55.801Z,10.67
2019-02-26T00:04:25.487Z,8.67
2019-02-26T00:07:16.286Z,9.20
2019-02-26T00:09:43.652Z,11.30
2019-02-26T00:12:11.561Z,10.63
2019-02-26T00:14:39.451Z,8.47
2019-02-26T00:17:10.586Z,8.97
2019-02-26T00:19:37.085Z,8.53
2019-02-26T00:22:07.213Z,9.20
2019-02-26T00:24:35.361Z,10.33
2019-02-26T00:27:05.558Z,11.50
2019-02-26T00:29:34.806Z,9.33
2019-02-26T00:32:03.223Z,8.50
2019-02-26T00:34:32.273Z,8.37
2019-02-26T00:37:01.766Z,6.77
2019-02-26T00:39:31.529Z,7.00
2019-02-26T00:42:00.863Z,8.90
2019-02-26T00:44:29.886Z,6.90
2019-02-26T00:46:59.730Z,6.40
2019-02-26T00:49:30.221Z,8.97
2019-02-26T00:51:58.239Z,8.97
2019-02-26T00:54:26.686Z,7.53
2019-02-26T00:56:59.022Z,7.90
2019-02-26T00:59:25.948Z,7.73
2019-02-26T01:01:54.795Z,7.80
2019-02-26T01:04:24.190Z,8.77
2019-02-26T01:06:52.254Z,8.77
2019-02-26T01:09:20.207Z,8.70
2019-02-26T01:11:49.740Z,10.97
2019-02-26T01:14:18.641Z,11.10
2019-02-26T01:16:48.268Z,10.93
2019-02-26T01:19:17.605Z,9.10
2019-02-26T01:21:46.082Z,8.57
2019-02-26T01:24:14.139Z,8.87
2019-02-26T01:26:43.515Z,10.13
2019-02-26T01:29:16.173Z,9.10
2019-02-26T01:31:41.395Z,9.60
2019-02-26T01:34:11.479Z,10.27
2019-02-26T01:36:40.408Z,10.03
2019-02-26T01:39:11.324Z,9.33
2019-02-26T01:41:41.352Z,9.83
2019-02-26T01:44:08.887Z,10.73
2019-02-26T01:46:38.816Z,10.53
2019-02-26T01:49:06.802Z,11.83
2019-02-26T01:51:34.699Z,11.17
2019-02-26T01:54:02.614Z,11.53
2019-02-26T01:56:30.651Z,10.97
2019-02-26T01:59:02.118Z,11.90
2019-02-26T02:01:28.577Z,12.97
2019-02-26T02:03:57.005Z,11.47
2019-02-26T02:06:57.129Z,10.90
2019-02-26T02:09:26.242Z,8.80
2019-02-26T02:11:57.422Z,9.40
2019-02-26T02:14:24.828Z,9.23
2019-02-26T02:22:26.342Z,10.13
2019-02-26T02:24:55.663Z,9.33
2019-02-26T02:27:25.190Z,10.33
2019-02-26T02:29:55.389Z,10.47
2019-02-26T02:32:26.626Z,10.23
2019-02-26T02:34:58.338Z,10.93
2019-02-26T02:37:26.786Z,11.07
2019-02-26T02:39:54.310Z,9.87
2019-02-26T02:42:22.321Z,10.10
2019-02-26T02:44:52.536Z,10.17
2019-02-26T02:47:20.032Z,9.07
2019-02-26T02:49:48.027Z,9.43
2019-02-26T02:52:16.406Z,9.70
2019-02-26T02:54:47.024Z,10.03
2019-02-26T02:57:14.816Z,9.30
2019-02-26T02:59:42.885Z,8.93
2019-02-26T03:02:12.664Z,11.47
2019-02-26T03:04:41.549Z,10.57
2019-02-26T03:07:09.619Z,9.77
2019-02-26T03:09:38.582Z,10.10
2019-02-26T03:12:07.406Z,9.73
2019-02-26T03:14:36.434Z,8.90
2019-02-26T03:17:06.417Z,9.70
2019-02-26T03:19:37.635Z,8.70
2019-02-26T03:22:07.129Z,10.00
2019-02-26T03:24:35.938Z,9.63
2019-02-26T03:27:04.256Z,9.33
2019-02-26T03:29:32.524Z,8.73
2019-02-26T03:32:01.088Z,13.00
2019-02-26T03:34:29.541Z,8.37
2019-02-26T03:36:59.888Z,10.77
2019-02-26T03:39:28.300Z,8.27
2019-02-26T03:41:56.898Z,8.83
2019-02-26T03:44:29.606Z,8.07
2019-02-26T03:46:55.465Z,8.10
2019-02-26T03:49:27.093Z,7.43
2019-02-26T03:51:59.095Z,8.10
2019-02-26T03:54:24.351Z,8.33
2019-02-26T03:57:01.787Z,9.40
2019-02-26T03:59:29.992Z,8.07
2019-02-26T04:01:58.511Z,7.40
2019-02-26T04:04:30.483Z,9.87
2019-02-26T04:06:58.505Z,8.97
2019-02-26T04:09:26.446Z,6.83
2019-02-26T04:11:55.426Z,7.77
2019-02-26T04:14:25.584Z,8.37
2019-02-26T04:16:55.226Z,7.47
2019-02-26T04:19:26.136Z,7.77
2019-02-26T04:22:28.239Z,9.50
2019-02-26T04:25:03.848Z,8.03
2019-02-26T04:28:16.087Z,7.07
2019-02-26T04:31:36.340Z,7.20
2019-02-26T04:34:11.795Z,7.77
2019-02-26T04:37:10.343Z,7.70
2019-02-26T04:40:12.049Z,8.77
2019-02-26T04:43:12.759Z,9.03
2019-02-26T04:46:02.852Z,8.97
2019-02-26T04:48:34.366Z,6.77
2019-02-26T04:51:02.372Z,7.77
2019-02-26T04:53:31.283Z,6.10
2019-02-26T04:56:02.861Z,6.50
2019-02-26T04:58:30.075Z,7.80
2019-02-26T05:00:58.134Z,6.27
2019-02-26T05:03:26.400Z,6.60
2019-02-26T05:05:57.240Z,5.97
2019-02-26T05:08:24.123Z,6.33
2019-02-26T05:10:54.219Z,6.43
2019-02-26T05:13:22.742Z,7.33
2019-02-26T05:15:51.666Z,6.57
2019-02-26T05:18:20.343Z,7.07
2019-02-26T05:20:49.362Z,6.10
2019-02-26T05:23:17.239Z,6.67
2019-02-26T05:25:45.230Z,6.20
2019-02-26T05:28:15.614Z,5.80
2019-02-26T05:30:45.262Z,5.63
2019-02-26T05:33:12.865Z,5.53
2019-02-26T05:35:43.569Z,5.17
2019-02-26T05:38:10.646Z,8.63
2019-02-26T05:40:40.363Z,6.63
2019-02-26T05:43:08.488Z,6.67
2019-02-26T05:45:36.435Z,5.87
2019-02-26T05:48:04.440Z,6.23
2019-02-26T05:50:35.436Z,6.13
2019-02-26T05:53:04.931Z,6.73
2019-02-26T05:55:32.080Z,5.87
2019-02-26T05:58:00.093Z,6.37
2019-02-26T06:00:32.355Z,5.37
2019-02-26T06:02:57.818Z,5.73
2019-02-26T06:05:26.221Z,5.73
2019-02-26T06:07:54.278Z,5.63
2019-02-26T06:10:24.639Z,5.77
2019-02-26T06:12:52.350Z,6.40
2019-02-26T06:15:20.936Z,5.33
2019-02-26T06:17:51.466Z,8.33
2019-02-26T06:20:20.745Z,6.20
2019-02-26T06:22:48.970Z,21.73
2019-02-26T06:25:20.611Z,48.10
2019-02-26T06:27:47.224Z,26.67
2019-02-26T06:30:15.199Z,21.97
2019-02-26T06:32:44.665Z,21.40
2019-02-26T06:35:16.555Z,16.37
2019-02-26T06:37:44.290Z,14.13
2019-02-26T06:40:12.904Z,17.43
2019-02-26T06:42:40.902Z,18.33
2019-02-26T06:45:10.884Z,26.27
2019-02-26T06:47:40.016Z,37.03
2019-02-26T06:50:10.566Z,39.90
2019-02-26T06:52:40.364Z,52.50
2019-02-26T06:55:09.270Z,47.23
2019-02-26T06:57:38.842Z,32.20
2019-02-26T07:00:09.829Z,19.87
2019-02-26T07:02:37.714Z,15.70
2019-02-26T07:05:08.124Z,16.40
2019-02-26T07:07:36.031Z,18.20
2019-02-26T07:10:04.745Z,18.20
2019-02-26T07:12:33.106Z,26.33
2019-02-26T07:15:01.115Z,23.27
2019-02-26T07:17:33.753Z,18.50
2019-02-26T07:20:03.010Z,18.30
2019-02-26T07:22:31.540Z,18.70
2019-02-26T07:24:59.386Z,19.33
2019-02-26T07:27:28.835Z,16.10
2019-02-26T07:29:57.243Z,14.63
2019-02-26T07:32:25.225Z,15.20
2019-02-26T07:34:53.187Z,21.30
2019-02-26T07:37:21.079Z,26.50
2019-02-26T07:39:49.747Z,25.93
2019-02-26T07:42:18.948Z,17.93
2019-02-26T07:44:46.934Z,11.60
2019-02-26T07:47:14.937Z,7.50
2019-02-26T07:49:42.851Z,6.17
2019-02-26T07:52:10.781Z,5.63
2019-02-26T07:54:40.491Z,6.60
2019-02-26T07:57:08.422Z,8.20
2019-02-26T07:59:37.027Z,14.73
2019-02-26T08:02:06.854Z,16.07
2019-02-26T08:04:36.340Z,13.00
2019-02-26T08:07:05.928Z,11.20
2019-02-26T08:09:33.783Z,11.97
2019-02-26T08:12:02.455Z,11.03
2019-02-26T08:14:57.328Z,9.73
2019-02-26T08:17:25.115Z,9.47
2019-02-26T08:19:52.963Z,9.90
2019-02-26T08:22:20.825Z,7.77
2019-02-26T08:24:50.913Z,4.90
2019-02-26T08:27:18.495Z,4.70
2019-02-26T08:29:46.433Z,4.17
2019-02-26T08:32:18.125Z,6.00
2019-02-26T08:34:44.091Z,3.70
2019-02-26T08:37:22.300Z,6.10
2019-02-26T08:39:50.191Z,7.00
2019-02-26T08:42:18.068Z,10.43
2019-02-26T08:44:46.855Z,12.33
2019-02-26T08:47:16.719Z,13.40
2019-02-26T08:49:47.495Z,14.63
2019-02-26T08:52:17.501Z,13.33
2019-02-26T08:54:45.230Z,10.00
2019-02-26T08:57:13.122Z,12.17
2019-02-26T08:59:42.256Z,10.70
2019-02-26T09:02:10.835Z,12.17
2019-02-26T09:04:40.703Z,10.90
2019-02-26T09:07:08.659Z,14.97
2019-02-26T09:09:36.703Z,12.40
2019-02-26T09:12:04.684Z,14.37
2019-02-26T09:14:48.132Z,14.63
2019-02-26T09:17:18.786Z,16.27
2019-02-26T09:19:45.291Z,14.43
2019-02-26T09:22:14.945Z,14.30
2019-02-26T09:24:43.094Z,15.63
2019-02-26T09:27:10.991Z,13.50
2019-02-26T09:29:39.707Z,14.23
2019-02-26T09:32:09.265Z,15.73
2019-02-26T09:34:39.955Z,13.60
2019-02-26T09:37:08.090Z,15.47
2019-02-26T09:39:37.217Z,14.63
2019-02-26T09:42:06.496Z,15.47
2019-02-26T09:44:35.949Z,17.70
2019-02-26T09:47:05.368Z,15.97
2019-02-26T09:49:35.556Z,14.93
2019-02-26T09:52:03.928Z,13.93
2019-02-26T09:54:37.593Z,14.40
2019-02-26T09:57:03.118Z,13.53
2019-02-26T09:59:31.912Z,10.87
2019-02-26T10:02:01.735Z,12.57
2019-02-26T10:04:30.580Z,10.27
2019-02-26T10:06:58.537Z,10.40
2019-02-26T10:09:26.722Z,11.23
2019-02-26T10:11:54.854Z,11.17
2019-02-26T10:14:50.579Z,10.40
2019-02-26T10:17:19.106Z,12.43
2019-02-26T10:19:46.896Z,11.13
2019-02-26T10:22:14.885Z,12.03
2019-02-26T10:24:43.068Z,10.60
2019-02-26T10:27:11.462Z,12.63
2019-02-26T10:29:42.791Z,11.07
2019-02-26T10:32:11.782Z,13.57
2019-02-26T10:34:40.046Z,14.70
2019-02-26T10:37:08.195Z,12.70
2019-02-26T10:39:36.208Z,11.30
2019-02-26T10:42:04.176Z,13.70
2019-02-26T10:44:32.139Z,18.00
2019-02-26T10:47:02.694Z,19.80
2019-02-26T10:49:29.694Z,18.30
2019-02-26T10:51:58.573Z,17.83
2019-02-26T10:54:28.669Z,12.60
2019-02-26T10:56:57.382Z,13.17
2019-02-26T10:59:25.952Z,15.50
2019-02-26T11:01:55.257Z,13.50
2019-02-26T11:04:23.559Z,11.33
2019-02-26T11:06:51.587Z,9.93
2019-02-26T11:09:25.322Z,11.33
2019-02-26T11:11:49.330Z,7.50
2019-02-26T11:14:33.565Z,8.03
2019-02-26T11:17:00.308Z,6.47
2019-02-26T11:19:33.285Z,6.70
2019-02-26T11:22:00.607Z,6.85
2019-02-26T11:24:30.252Z,6.33
2019-02-26T11:26:57.291Z,5.40
2019-02-26T11:29:26.120Z,3.62
2019-02-26T11:31:55.082Z,3.73
2019-02-26T11:34:25.322Z,3.67
2019-02-26T11:36:54.171Z,3.73
2019-02-26T11:39:22.482Z,2.83
2019-02-26T11:41:53.480Z,2.70
2019-02-26T11:44:22.577Z,2.60
2019-02-26T11:46:51.359Z,3.40
2019-02-26T11:49:21.667Z,2.77
2019-02-26T11:51:49.290Z,3.03
2019-02-26T11:54:17.712Z,2.50
2019-02-26T11:56:47.393Z,2.77
2019-02-26T11:59:16.888Z,2.50
2019-02-26T12:01:45.159Z,3.20
2019-02-26T12:04:14.262Z,3.17
2019-02-26T12:06:43.363Z,3.30
2019-02-26T12:09:13.660Z,2.80
2019-02-26T12:11:41.091Z,2.70
2019-02-26T12:14:10.918Z,2.63
2019-02-26T12:16:38.914Z,2.40
2019-02-26T12:19:08.699Z,3.60
2019-02-26T12:21:37.015Z,3.20
2019-02-26T12:24:06.609Z,2.80
2019-02-26T12:26:34.702Z,2.30
2019-02-26T12:29:04.425Z,2.30
2019-02-26T12:31:34.516Z,2.40
2019-02-26T12:34:02.607Z,2.40
2019-02-26T12:36:32.513Z,2.30
2019-02-26T12:39:02.425Z,4.00
2019-02-26T12:41:32.412Z,2.63
2019-02-26T12:44:02.277Z,3.43
2019-02-26T12:46:31.231Z,3.47
2019-02-26T12:48:59.085Z,2.20
2019-02-26T12:51:31.186Z,3.63
2019-02-26T12:53:56.554Z,2.03
2019-02-26T12:56:27.013Z,2.33
2019-02-26T12:58:54.803Z,2.30
2019-02-26T13:01:23.048Z,2.70
2019-02-26T13:03:54.795Z,1.83
2019-02-26T13:06:22.796Z,4.63
2019-02-26T13:08:50.898Z,2.50
2019-02-26T13:11:24.954Z,3.17
2019-02-26T13:13:53.431Z,3.37
2019-02-26T13:16:21.663Z,2.60
2019-02-26T13:18:51.556Z,3.33
2019-02-26T13:21:19.423Z,2.53
2019-02-26T13:23:47.346Z,2.40
2019-02-26T13:26:19.575Z,2.70
2019-02-26T13:28:46.737Z,5.50
2019-02-26T13:31:18.313Z,2.73
2019-02-26T13:33:44.948Z,3.50
2019-02-26T13:36:13.431Z,3.13
2019-02-26T13:38:45.002Z,2.30
2019-02-26T13:41:28.863Z,2.77
2019-02-26T13:43:41.398Z,2.63
2019-02-26T13:46:09.266Z,2.20
2019-02-26T13:48:37.175Z,3.73
2019-02-26T13:51:05.174Z,2.10
2019-02-26T13:53:33.074Z,2.57
2019-02-26T13:56:01.038Z,3.07
2019-02-26T13:58:29.044Z,3.10
2019-02-26T14:00:57.275Z,5.23
2019-02-26T14:03:25.186Z,3.70
2019-02-26T14:05:53.155Z,2.77
2019-02-26T14:08:21.241Z,2.40
2019-02-26T14:10:49.298Z,2.43
2019-02-26T14:13:17.259Z,2.50
2019-02-26T14:16:08.396Z,3.83
2019-02-26T14:18:36.427Z,2.37
2019-02-26T14:21:04.470Z,3.40
2019-02-26T14:23:35.064Z,2.20
2019-02-26T14:26:02.366Z,3.17
2019-02-26T14:28:30.319Z,2.40
2019-02-26T14:30:58.218Z,2.67
2019-02-26T14:33:26.435Z,2.07
2019-02-26T14:35:54.389Z,3.20
2019-02-26T14:38:22.334Z,3.83
2019-02-26T14:40:50.759Z,2.97
2019-02-26T14:43:19.065Z,2.67
2019-02-26T14:45:47.081Z,2.70
2019-02-26T14:48:15.075Z,2.77
2019-02-26T14:50:43.063Z,2.27
2019-02-26T14:53:11.007Z,2.10
2019-02-26T14:55:39.008Z,3.10
2019-02-26T14:58:07.005Z,2.47
2019-02-26T15:00:35.136Z,2.47
2019-02-26T15:03:03.070Z,2.67
2019-02-26T15:05:30.990Z,3.67
2019-02-26T15:07:58.882Z,3.07
2019-02-26T15:10:27.838Z,4.27
2019-02-26T15:12:56.043Z,3.23
2019-02-26T15:16:03.716Z,3.50
2019-02-26T15:18:30.213Z,4.43
2019-02-26T15:20:58.136Z,4.27
2019-02-26T15:23:26.071Z,4.73
2019-02-26T15:25:54.091Z,5.77
2019-02-26T15:28:21.920Z,2.80
2019-02-26T15:30:49.858Z,2.63
2019-02-26T15:33:17.724Z,3.27
2019-02-26T15:35:46.917Z,3.40
2019-02-26T15:38:14.849Z,4.03
2019-02-26T15:40:42.830Z,4.37
2019-02-26T15:43:11.111Z,5.90
2019-02-26T15:45:39.071Z,8.40
2019-02-26T15:48:07.063Z,5.67
2019-02-26T15:50:35.155Z,4.67
2019-02-26T15:53:03.151Z,4.93
2019-02-26T15:55:31.153Z,6.50
2019-02-26T15:58:03.021Z,7.10
2019-02-26T16:00:29.306Z,4.57
2019-02-26T16:02:59.485Z,5.63
2019-02-26T16:05:27.531Z,5.50
2019-02-26T16:07:55.478Z,4.70
2019-02-26T16:10:23.726Z,6.03
2019-02-26T16:12:51.668Z,5.00
2019-02-26T16:15:59.598Z,5.83
2019-02-26T16:18:27.612Z,5.97
2019-02-26T16:20:55.833Z,6.13
2019-02-26T16:23:23.741Z,5.20
2019-02-26T16:25:51.651Z,6.33
2019-02-26T16:28:19.610Z,4.93
2019-02-26T16:30:47.503Z,5.17
2019-02-26T16:33:15.597Z,7.17
2019-02-26T16:35:43.402Z,12.73
2019-02-26T16:38:11.720Z,18.13
2019-02-26T16:40:41.235Z,19.13
2019-02-26T16:43:09.095Z,17.50
2019-02-26T16:45:37.078Z,40.20
2019-02-26T16:48:05.057Z,33.10
2019-02-26T16:50:33.074Z,29.03
2019-02-26T16:53:01.236Z,27.03
2019-02-26T16:55:29.645Z,23.93
2019-02-26T16:58:02.333Z,25.17
2019-02-26T17:00:27.307Z,20.63
2019-02-26T17:02:55.193Z,19.63
2019-02-26T17:05:25.187Z,21.77
2019-02-26T17:07:53.323Z,18.17
2019-02-26T17:10:21.649Z,18.67
2019-02-26T17:12:52.338Z,18.70
2019-02-26T17:16:08.387Z,25.37
2019-02-26T17:18:34.290Z,20.90
2019-02-26T17:21:02.245Z,16.33
2019-02-26T17:23:30.199Z,16.30
2019-02-26T17:26:00.366Z,15.67
2019-02-26T17:28:27.791Z,14.57
2019-02-26T17:30:57.767Z,12.00
2019-02-26T17:33:25.532Z,11.33
2019-02-26T17:35:53.471Z,10.17
2019-02-26T17:38:21.390Z,10.73
2019-02-26T17:40:49.388Z,15.90
2019-02-26T17:43:17.498Z,12.27
2019-02-26T17:45:45.405Z,12.67
2019-02-26T17:48:13.394Z,16.30
2019-02-26T17:50:43.359Z,14.97
2019-02-26T17:53:11.134Z,13.33
2019-02-26T17:55:39.253Z,14.87
2019-02-26T17:58:09.762Z,14.00
2019-02-26T18:00:39.447Z,14.47
2019-02-26T18:03:07.749Z,11.87
2019-02-26T18:05:40.456Z,8.97
2019-02-26T18:08:06.155Z,7.20
2019-02-26T18:10:34.440Z,11.37
2019-02-26T18:13:04.026Z,19.00
2019-02-26T18:16:09.219Z,24.07
2019-02-26T18:18:34.382Z,17.53
2019-02-26T18:21:05.709Z,13.27
2019-02-26T18:23:32.112Z,13.40
2019-02-26T18:26:00.166Z,15.03
2019-02-26T18:28:28.350Z,13.40
2019-02-26T18:30:56.351Z,10.50
2019-02-26T18:33:25.076Z,10.10
2019-02-26T18:35:53.155Z,13.23
2019-02-26T18:38:21.521Z,12.63
2019-02-26T18:40:49.488Z,13.23
2019-02-26T18:43:17.427Z,11.97
2019-02-26T18:45:45.341Z,14.47
2019-02-26T18:48:15.056Z,15.00
2019-02-26T18:50:43.459Z,15.40
2019-02-26T18:53:11.754Z,17.20
2019-02-26T18:55:41.245Z,16.90
2019-02-26T18:58:09.625Z,14.83
2019-02-26T19:00:37.518Z,19.77
2019-02-26T19:03:08.635Z,21.27
2019-02-26T19:05:36.011Z,21.47
2019-02-26T19:08:05.853Z,20.97
2019-02-26T19:10:34.235Z,21.47
2019-02-26T19:13:03.237Z,23.53
2019-02-26T19:16:15.743Z,21.17
2019-02-26T19:18:42.651Z,28.13
2019-02-26T19:21:11.203Z,23.67
2019-02-26T19:23:39.558Z,15.17
2019-02-26T19:26:07.829Z,15.13
2019-02-26T19:28:36.039Z,14.10
2019-02-26T19:31:04.622Z,10.27
2019-02-26T19:33:33.346Z,13.37
2019-02-26T19:36:02.018Z,13.77
2019-02-26T19:38:30.803Z,13.80
2019-02-26T19:41:03.438Z,18.23
2019-02-26T19:43:32.397Z,22.17
2019-02-26T19:46:02.246Z,20.67
2019-02-26T19:48:33.889Z,21.30
2019-02-26T19:51:01.626Z,19.67
2019-02-26T19:53:34.437Z,20.23
2019-02-26T19:56:00.846Z,21.03
2019-02-26T19:58:29.267Z,19.10
2019-02-26T20:00:57.955Z,15.93
2019-02-26T20:03:26.675Z,13.53
2019-02-26T20:05:59.340Z,12.67
2019-02-26T20:08:27.954Z,13.27
2019-02-26T20:10:57.793Z,14.50
2019-02-26T20:13:26.146Z,14.67
2019-02-26T20:16:46.771Z,23.70
2019-02-26T20:19:12.809Z,21.40
2019-02-26T20:21:41.271Z,18.13
2019-02-26T20:24:09.170Z,20.73
2019-02-26T20:26:37.446Z,18.07
2019-02-26T20:29:07.802Z,18.27
2019-02-26T20:31:35.802Z,15.57
2019-02-26T20:34:06.816Z,15.93
2019-02-26T20:36:34.110Z,11.70
2019-02-26T20:39:02.090Z,15.37
2019-02-26T20:41:30.059Z,15.97
2019-02-26T20:43:58.148Z,19.83
2019-02-26T20:46:26.194Z,20.90
2019-02-26T20:48:54.670Z,20.47
2019-02-26T20:51:26.871Z,20.03
2019-02-26T20:53:52.815Z,17.40
2019-02-26T20:56:20.862Z,14.80
2019-02-26T20:58:48.808Z,15.07
2019-02-26T21:01:16.723Z,13.77
2019-02-26T21:03:44.567Z,13.37
2019-02-26T21:06:13.046Z,12.93
2019-02-26T21:08:41.039Z,11.97
2019-02-26T21:11:09.541Z,11.80
2019-02-26T21:13:37.724Z,15.30
2019-02-26T21:16:53.434Z,14.90
2019-02-26T21:19:19.034Z,13.97
2019-02-26T21:21:49.041Z,13.87
2019-02-26T21:24:16.818Z,17.23
2019-02-26T21:27:26.750Z,13.07
2019-02-26T21:29:53.019Z,11.30
2019-02-26T21:32:25.380Z,12.50
2019-02-26T21:34:50.658Z,12.00
2019-02-26T21:37:18.653Z,13.07
2019-02-26T21:39:46.679Z,12.50
2019-02-26T21:42:14.595Z,8.83
2019-02-26T21:44:42.530Z,6.83
2019-02-26T21:47:10.466Z,6.30
2019-02-26T21:49:38.457Z,7.03
2019-02-26T21:52:08.692Z,7.60
2019-02-26T21:54:36.194Z,7.87
2019-02-26T21:57:04.108Z,8.20
2019-02-26T21:59:32.779Z,9.07
2019-02-26T22:02:01.211Z,7.17
2019-02-26T22:04:31.728Z,6.90
2019-02-26T22:06:58.949Z,6.17
2019-02-26T22:09:29.914Z,4.90
2019-02-26T22:11:56.672Z,5.23
2019-02-26T22:14:46.780Z,5.63
2019-02-26T22:17:14.758Z,6.33
2019-02-26T22:19:42.691Z,6.47
2019-02-26T22:22:10.730Z,7.00
2019-02-26T22:24:40.681Z,8.07
2019-02-26T22:27:08.511Z,8.47
2019-02-26T22:29:36.728Z,7.07
2019-02-26T22:32:04.622Z,6.63
2019-02-26T22:34:32.613Z,10.00
2019-02-26T22:37:00.504Z,9.03
2019-02-26T22:39:29.024Z,6.23
2019-02-26T22:41:57.101Z,5.67
2019-02-26T22:44:25.121Z,5.73
2019-02-26T22:46:53.020Z,6.43
2019-02-26T22:49:21.379Z,5.50
2019-02-26T22:51:49.295Z,6.47
2019-02-26T22:54:17.141Z,7.40
2019-02-26T22:56:45.168Z,6.50
2019-02-26T22:59:13.263Z,6.03
2019-02-26T23:01:45.985Z,6.07
2019-02-26T23:04:14.111Z,6.17
2019-02-26T23:06:42.211Z,5.63
2019-02-26T23:09:12.921Z,6.50
2019-02-26T23:11:41.094Z,6.53
2019-02-26T23:14:09.406Z,5.70
2019-02-26T23:16:38.138Z,5.50
2019-02-26T23:19:06.472Z,4.83
2019-02-26T23:21:35.149Z,5.90
2019-02-26T23:24:03.570Z,6.87
2019-02-26T23:26:32.053Z,6.93
2019-02-26T23:29:00.044Z,5.97
2019-02-26T23:31:27.911Z,6.40
2019-02-26T23:33:56.001Z,5.97
2019-02-26T23:36:25.722Z,5.27
2019-02-26T23:38:53.743Z,5.23
2019-02-26T23:41:22.006Z,4.97
2019-02-26T23:43:50.027Z,5.33
2019-02-26T23:46:18.280Z,4.77
2019-02-26T23:48:46.275Z,3.90
2019-02-26T23:51:14.238Z,4.87
2019-02-26T23:53:42.239Z,5.50
2019-02-26T23:56:10.102Z,5.03
2019-02-26T23:58:38.027Z,5.53
